Terminal Aerodrome Forecast
Issued by NWS Jackson, KY

Home | Current Version | Previous Version | Text Only | Print | Product List | Glossary On
Versions: 1 2 3 4 5 6 7 8 9 10 11 12 13 14 15
000
FTUS43 KJKL 141726
TAFJKL
TAF
KJKL 141726Z 1418/1518 VRB03KT P6SM SCT250
     FM150300 VRB03KT P6SM BKN250
     FM151000 VRB03KT P6SM -SHSN OVC040
     FM151300 VRB03KT P6SM OVC040
     FM151600 19007KT P6SM BKN060=

USA.gov is the U.S. government's official web portal to all federal, state and local government web resources and services.